createdAt,value
2024-05-09T00:02:57.549Z,501.00
2024-05-09T00:07:29.616Z,492.00
2024-05-09T00:08:02.669Z,495.00
2024-05-09T00:10:39.343Z,500.00
2024-05-09T00:11:07.027Z,503.00
2024-05-09T00:12:07.066Z,505.00
2024-05-09T00:13:07.498Z,508.00
2024-05-09T00:14:07.044Z,506.00
2024-05-09T00:15:06.966Z,506.00
2024-05-09T00:16:06.967Z,505.00
2024-05-09T00:17:07.023Z,505.00
2024-05-09T00:18:07.946Z,505.00
2024-05-09T00:19:07.023Z,505.00
2024-05-09T00:20:14.316Z,504.00
2024-05-09T00:21:08.062Z,502.00
2024-05-09T00:22:06.989Z,503.00
2024-05-09T00:23:07.606Z,504.00
2024-05-09T00:24:06.984Z,505.00
2024-05-09T00:25:07.001Z,502.00
2024-05-09T00:26:07.054Z,501.00
2024-05-09T00:27:07.948Z,502.00
2024-05-09T00:28:07.000Z,503.00
2024-05-09T00:29:07.061Z,507.00
2024-05-09T00:31:38.373Z,507.00
2024-05-09T00:32:11.436Z,509.00
2024-05-09T00:33:11.940Z,511.00
2024-05-09T00:37:51.487Z,508.00
2024-05-09T00:38:24.469Z,508.00
2024-05-09T00:44:11.414Z,497.00
2024-05-09T00:44:42.055Z,495.00
2024-05-09T00:45:42.074Z,494.00
2024-05-09T00:46:42.130Z,492.00
2024-05-09T00:47:42.291Z,493.00
2024-05-09T00:59:50.284Z,510.00
2024-05-09T01:00:31.363Z,505.00
2024-05-09T01:01:26.785Z,500.00
2024-05-09T01:02:25.735Z,497.00
2024-05-09T01:03:25.927Z,496.00
2024-05-09T01:09:10.114Z,501.00
2024-05-09T01:09:43.092Z,499.00
2024-05-09T01:10:45.225Z,501.00
2024-05-09T01:11:43.207Z,504.00
2024-05-09T01:12:43.096Z,504.00
2024-05-09T01:13:43.176Z,503.00
2024-05-09T01:31:39.585Z,502.00
2024-05-09T01:32:12.656Z,501.00
2024-05-09T01:33:13.343Z,503.00
2024-05-09T01:34:12.528Z,504.00
2024-05-09T01:35:12.523Z,505.00
2024-05-09T01:36:12.504Z,505.00
2024-05-09T01:37:12.515Z,506.00
2024-05-09T01:38:12.570Z,508.00
2024-05-09T01:39:12.517Z,511.00
2024-05-09T01:43:52.662Z,509.00
2024-05-09T01:44:25.634Z,508.00
2024-05-09T01:45:25.551Z,508.00
2024-05-09T01:46:25.549Z,506.00
2024-05-09T01:51:05.773Z,512.00
2024-05-09T02:07:13.280Z,515.00
2024-05-09T02:07:46.294Z,514.00
2024-05-09T02:08:46.279Z,514.00
2024-05-09T02:09:46.265Z,512.00
2024-05-09T02:10:46.526Z,512.00
2024-05-09T02:11:46.443Z,511.00
2024-05-09T02:12:46.274Z,511.00
2024-05-09T02:13:46.306Z,511.00
2024-05-09T02:14:46.286Z,510.00
2024-05-09T02:15:46.292Z,506.00
2024-05-09T02:16:46.318Z,504.00
2024-05-09T02:17:46.490Z,501.00
2024-05-09T02:18:46.407Z,502.00
2024-05-09T02:19:46.315Z,504.00
2024-05-09T02:20:46.322Z,503.00
2024-05-09T02:21:46.308Z,506.00
2024-05-09T02:22:46.351Z,507.00
2024-05-09T02:23:46.319Z,506.00
2024-05-09T02:24:46.299Z,504.00
2024-05-09T02:25:46.333Z,504.00
2024-05-09T02:26:46.311Z,504.00
2024-05-09T02:27:46.359Z,503.00
2024-05-09T02:30:22.918Z,502.00
2024-05-09T02:30:51.665Z,499.00
2024-05-09T02:31:50.792Z,499.00
2024-05-09T02:35:26.612Z,498.00
2024-05-09T02:35:59.380Z,499.00
2024-05-09T02:36:59.422Z,499.00
2024-05-09T02:37:59.691Z,499.00
2024-05-09T02:44:48.176Z,517.00
2024-05-09T02:45:21.244Z,521.00
2024-05-09T02:46:21.179Z,521.00
2024-05-09T02:47:21.497Z,522.00
2024-05-09T02:52:07.659Z,520.00
2024-05-09T02:52:40.611Z,518.00
2024-05-09T02:53:40.634Z,516.00
2024-05-09T02:54:40.690Z,514.00
2024-05-09T02:55:40.636Z,513.00
2024-05-09T03:01:25.269Z,509.00
2024-05-09T03:01:58.082Z,511.00
2024-05-09T03:02:58.161Z,508.00
2024-05-09T03:03:58.209Z,510.00
2024-05-09T03:04:58.295Z,510.00
2024-05-09T03:05:58.021Z,511.00
2024-05-09T03:06:58.008Z,512.00
2024-05-09T03:07:58.070Z,511.00
2024-05-09T03:08:58.023Z,507.00
2024-05-09T03:09:58.022Z,505.00
2024-05-09T03:10:58.052Z,508.00
2024-05-09T03:11:58.183Z,509.00
2024-05-09T03:12:58.002Z,508.00
2024-05-09T03:20:11.631Z,509.00
2024-05-09T03:20:40.251Z,509.00
2024-05-09T03:21:38.834Z,510.00
2024-05-09T03:22:38.815Z,508.00
2024-05-09T03:23:38.941Z,509.00
2024-05-09T03:24:38.830Z,508.00
2024-05-09T03:25:39.057Z,510.00
2024-05-09T03:26:38.901Z,507.00
2024-05-09T03:27:38.823Z,506.00
2024-05-09T03:30:10.202Z,507.00
2024-05-09T03:30:43.559Z,511.00
2024-05-09T03:31:43.247Z,512.00
2024-05-09T03:32:43.275Z,515.00
2024-05-09T03:33:43.305Z,515.00
2024-05-09T03:34:43.181Z,518.00
2024-05-09T03:38:21.461Z,514.00
2024-05-09T03:38:52.098Z,512.00
2024-05-09T03:39:52.113Z,509.00
2024-05-09T03:40:52.236Z,505.00
2024-05-09T03:42:19.223Z,503.00
2024-05-09T03:42:52.228Z,503.00
2024-05-09T03:43:52.277Z,501.00
2024-05-09T03:44:52.240Z,502.00
2024-05-09T03:45:52.247Z,502.00
2024-05-09T03:46:52.263Z,502.00
2024-05-09T03:47:52.650Z,505.00
2024-05-09T03:48:52.284Z,505.00
2024-05-09T03:49:52.250Z,505.00
2024-05-09T03:50:52.358Z,503.00
2024-05-09T03:51:52.236Z,506.00
2024-05-09T03:52:52.262Z,505.00
2024-05-09T03:53:52.244Z,508.00
2024-05-09T03:54:52.249Z,510.00
2024-05-09T03:55:52.272Z,509.00
2024-05-09T03:56:52.350Z,508.00
2024-05-09T03:57:52.243Z,507.00
2024-05-09T03:58:52.302Z,505.00
2024-05-09T03:59:52.244Z,504.00
2024-05-09T04:00:53.226Z,505.00
2024-05-09T04:01:52.392Z,509.00
2024-05-09T04:02:52.359Z,515.00
2024-05-09T04:03:52.366Z,519.00
2024-05-09T04:04:52.371Z,519.00
2024-05-09T04:05:52.275Z,519.00
2024-05-09T04:06:52.278Z,518.00
2024-05-09T04:07:52.297Z,520.00
2024-05-09T04:08:52.276Z,515.00
2024-05-09T04:09:52.254Z,514.00
2024-05-09T04:10:52.280Z,515.00
2024-05-09T04:11:52.544Z,517.00
2024-05-09T04:12:52.283Z,517.00
2024-05-09T04:13:52.313Z,519.00
2024-05-09T04:14:52.289Z,520.00
2024-05-09T04:15:52.275Z,518.00
2024-05-09T04:16:52.327Z,515.00
2024-05-09T04:17:52.558Z,515.00
2024-05-09T04:18:52.336Z,515.00
2024-05-09T04:19:52.293Z,516.00
2024-05-09T04:20:52.325Z,514.00
2024-05-09T04:23:26.571Z,512.00
2024-05-09T04:23:56.683Z,509.00
2024-05-09T04:24:56.663Z,507.00
2024-05-09T04:27:28.033Z,503.00
2024-05-09T04:28:01.087Z,504.00
2024-05-09T04:29:01.092Z,504.00
2024-05-09T04:30:01.031Z,504.00
2024-05-09T04:31:01.035Z,503.00
2024-05-09T04:32:01.098Z,503.00
2024-05-09T04:33:01.140Z,503.00
2024-05-09T04:34:01.111Z,501.00
2024-05-09T04:35:01.063Z,502.00
2024-05-09T04:36:01.043Z,502.00
2024-05-09T04:37:01.026Z,502.00
2024-05-09T04:38:08.326Z,511.00
2024-05-09T04:39:08.293Z,512.00
2024-05-09T04:41:39.702Z,515.00
2024-05-09T04:52:46.576Z,517.00
2024-05-09T04:53:19.657Z,517.00
2024-05-09T04:55:19.497Z,515.00
2024-05-09T04:56:19.567Z,518.00
2024-05-09T04:57:19.510Z,520.00
2024-05-09T04:58:19.513Z,519.00
2024-05-09T04:59:19.538Z,517.00
2024-05-09T05:00:28.584Z,519.00
2024-05-09T05:01:20.557Z,521.00
2024-05-09T05:23:09.244Z,510.00
2024-05-09T05:23:42.285Z,511.00
2024-05-09T05:24:42.180Z,509.00
2024-05-09T05:25:42.182Z,512.00
2024-05-09T05:26:42.255Z,512.00
2024-05-09T05:27:42.180Z,510.00
2024-05-09T05:28:42.178Z,509.00
2024-05-09T05:29:42.240Z,509.00
2024-05-09T05:30:42.186Z,512.00
2024-05-09T05:33:13.794Z,516.00
2024-05-09T05:33:46.632Z,516.00
2024-05-09T05:34:46.557Z,516.00
2024-05-09T05:35:46.526Z,516.00
2024-05-09T05:36:46.536Z,514.00
2024-05-09T05:37:46.552Z,515.00
2024-05-09T05:38:46.634Z,513.00
2024-05-09T05:41:17.930Z,514.00
2024-05-09T05:41:50.883Z,514.00
2024-05-09T05:42:50.884Z,515.00
2024-05-09T05:43:50.955Z,515.00
2024-05-09T05:44:50.895Z,515.00
2024-05-09T05:45:50.889Z,514.00
2024-05-09T05:46:50.971Z,515.00
2024-05-09T05:47:51.091Z,517.00
2024-05-09T05:48:50.988Z,517.00
2024-05-09T05:49:50.955Z,514.00
2024-05-09T05:50:50.979Z,513.00
2024-05-09T05:51:50.884Z,514.00
2024-05-09T05:52:50.963Z,514.00
2024-05-09T05:53:50.913Z,516.00
2024-05-09T05:58:30.973Z,517.00
2024-05-09T05:59:03.998Z,516.00
2024-05-09T06:00:07.082Z,520.00
2024-05-09T06:01:04.972Z,520.00
2024-05-09T06:02:04.080Z,516.00
2024-05-09T06:03:04.064Z,517.00
2024-05-09T06:05:35.439Z,515.00
2024-05-09T06:06:08.322Z,514.00
2024-05-09T06:07:08.296Z,517.00
2024-05-09T06:08:08.475Z,517.00
2024-05-09T06:09:08.317Z,517.00
2024-05-09T06:10:17.008Z,516.00
2024-05-09T06:11:09.379Z,517.00
2024-05-09T06:12:08.449Z,518.00
2024-05-09T06:13:08.302Z,514.00
2024-05-09T06:14:08.352Z,514.00
2024-05-09T06:16:39.689Z,517.00
2024-05-09T06:17:12.756Z,519.00
2024-05-09T06:18:13.106Z,517.00
2024-05-09T06:32:34.411Z,506.00
2024-05-09T06:33:05.568Z,506.00
2024-05-09T06:34:05.226Z,506.00
2024-05-09T06:35:05.192Z,509.00
2024-05-09T06:37:36.574Z,511.00
2024-05-09T06:38:09.916Z,509.00
2024-05-09T06:42:49.627Z,508.00
2024-05-09T06:43:22.606Z,506.00
2024-05-09T06:44:22.712Z,506.00
2024-05-09T06:45:22.607Z,506.00
2024-05-09T06:56:31.426Z,499.00
2024-05-09T06:57:01.774Z,499.00
2024-05-09T06:58:01.796Z,499.00
2024-05-09T06:59:01.832Z,500.00
2024-05-09T07:00:01.779Z,501.00
2024-05-09T07:01:01.799Z,501.00
2024-05-09T07:02:01.798Z,500.00
2024-05-09T07:03:05.359Z,498.00
2024-05-09T07:04:01.899Z,499.00
2024-05-09T07:05:02.009Z,498.00
2024-05-09T07:06:01.921Z,497.00
2024-05-09T07:07:01.784Z,498.00
2024-05-09T07:08:01.812Z,501.00
2024-05-09T07:09:01.804Z,499.00
2024-05-09T07:10:01.789Z,494.00
2024-05-09T07:12:34.287Z,498.00
2024-05-09T07:13:06.211Z,500.00
2024-05-09T07:14:06.273Z,497.00
2024-05-09T07:15:06.134Z,497.00
2024-05-09T07:16:06.145Z,495.00
2024-05-09T07:17:06.316Z,497.00
2024-05-09T07:18:06.226Z,500.00
2024-05-09T07:22:46.576Z,498.00
2024-05-09T07:23:19.407Z,496.00
2024-05-09T07:24:19.204Z,493.00
2024-05-09T07:25:19.204Z,494.00
2024-05-09T07:31:03.617Z,497.00
2024-05-09T07:31:36.609Z,499.00
2024-05-09T07:32:36.803Z,500.00
2024-05-09T07:50:34.113Z,494.00
2024-05-09T07:52:23.559Z,499.00
2024-05-09T07:53:33.166Z,499.00
2024-05-09T07:53:41.932Z,496.00
2024-05-09T07:54:34.368Z,498.00
2024-05-09T07:57:17.379Z,498.00
2024-05-09T07:57:50.325Z,497.00
2024-05-09T07:58:50.245Z,496.00
2024-05-09T07:59:50.196Z,497.00
2024-05-09T08:01:20.210Z,497.00
2024-05-09T08:01:50.262Z,499.00
2024-05-09T08:02:50.291Z,497.00
2024-05-09T08:20:30.364Z,490.00
2024-05-09T08:20:56.480Z,492.00
2024-05-09T08:21:55.535Z,493.00
2024-05-09T08:22:55.469Z,491.00
2024-05-09T08:23:55.477Z,490.00
2024-05-09T08:24:55.483Z,493.00
2024-05-09T08:25:55.485Z,493.00
2024-05-09T08:26:55.472Z,492.00
2024-05-09T08:27:55.538Z,496.00
2024-05-09T08:28:55.492Z,496.00
2024-05-09T08:29:55.513Z,496.00
2024-05-09T08:30:55.603Z,496.00
2024-05-09T08:31:55.484Z,497.00
2024-05-09T08:35:31.287Z,492.00
2024-05-09T08:36:04.207Z,490.00
2024-05-09T08:44:10.773Z,482.00
2024-05-09T08:44:43.694Z,484.00
2024-05-09T08:45:45.566Z,483.00
2024-05-09T08:46:43.630Z,480.00
2024-05-09T08:47:43.822Z,484.00
2024-05-09T08:50:28.741Z,483.00
2024-05-09T08:50:49.137Z,480.00
2024-05-09T08:51:48.074Z,483.00
2024-05-09T08:52:48.005Z,482.00
2024-05-09T08:53:48.006Z,481.00
2024-05-09T08:54:48.063Z,481.00
2024-05-09T09:00:36.938Z,474.00
2024-05-09T09:01:06.534Z,475.00
2024-05-09T09:02:05.545Z,476.00
2024-05-09T09:03:05.533Z,473.00
2024-05-09T09:04:32.547Z,473.00
2024-05-09T09:05:05.502Z,471.00
2024-05-09T09:06:05.503Z,469.00
2024-05-09T09:07:05.461Z,468.00
2024-05-09T09:08:05.452Z,473.00
2024-05-09T09:09:05.442Z,471.00
2024-05-09T09:10:07.053Z,472.00
2024-05-09T09:11:15.689Z,484.00
2024-05-09T09:12:15.674Z,481.00
2024-05-09T09:13:15.950Z,479.00
2024-05-09T09:14:15.684Z,479.00
2024-05-09T09:15:15.679Z,481.00
2024-05-09T09:16:15.673Z,480.00
2024-05-09T09:17:15.769Z,478.00
2024-05-09T09:18:16.028Z,476.00
2024-05-09T09:19:45.249Z,477.00
2024-05-09T09:27:09.300Z,483.00
2024-05-09T09:27:42.023Z,482.00
2024-05-09T09:28:41.992Z,481.00
2024-05-09T09:29:41.986Z,481.00
2024-05-09T09:30:42.037Z,482.00
2024-05-09T09:31:41.976Z,480.00
2024-05-09T09:32:42.058Z,483.00
2024-05-09T09:33:42.074Z,484.00
2024-05-09T09:39:26.410Z,487.00
2024-05-09T09:39:59.411Z,484.00
2024-05-09T09:45:44.178Z,475.00
2024-05-09T09:46:16.936Z,476.00
2024-05-09T09:47:16.816Z,478.00
2024-05-09T09:48:16.947Z,478.00
2024-05-09T09:49:17.037Z,482.00
2024-05-09T09:50:20.872Z,477.00
2024-05-09T09:51:17.785Z,478.00
2024-05-09T09:52:17.061Z,479.00
2024-05-09T09:53:16.856Z,480.00
2024-05-09T09:54:16.799Z,482.00
2024-05-09T10:04:18.675Z,488.00
2024-05-09T10:04:51.674Z,486.00
2024-05-09T10:05:51.609Z,485.00
2024-05-09T10:06:51.644Z,483.00
2024-05-09T10:07:51.590Z,481.00
2024-05-09T10:08:51.600Z,477.00
2024-05-09T10:12:27.464Z,478.00
2024-05-09T10:13:00.651Z,480.00
2024-05-09T10:14:00.284Z,480.00
2024-05-09T10:15:00.285Z,482.00
2024-05-09T10:16:00.349Z,481.00
2024-05-09T10:22:49.045Z,475.00
2024-05-09T10:23:22.061Z,476.00
2024-05-09T10:24:22.055Z,475.00
2024-05-09T10:25:22.238Z,472.00
2024-05-09T10:26:22.053Z,470.00
2024-05-09T10:27:22.040Z,470.00
2024-05-09T10:28:22.079Z,468.00
2024-05-09T10:29:22.044Z,468.00
2024-05-09T10:30:29.599Z,470.00
2024-05-09T10:31:23.100Z,470.00
2024-05-09T10:32:22.147Z,472.00
2024-05-09T10:38:06.490Z,470.00
2024-05-09T10:38:39.458Z,467.00
2024-05-09T10:39:39.616Z,466.00
2024-05-09T10:40:39.551Z,468.00
2024-05-09T10:41:39.465Z,467.00
2024-05-09T10:42:39.500Z,465.00
2024-05-09T10:43:39.451Z,465.00
2024-05-09T10:44:39.459Z,466.00
2024-05-09T10:48:15.637Z,464.00
2024-05-09T10:48:48.804Z,467.00
2024-05-09T10:49:48.301Z,468.00
2024-05-09T10:52:22.073Z,466.00
2024-05-09T10:52:52.690Z,465.00
2024-05-09T10:53:52.757Z,463.00
2024-05-09T10:54:52.822Z,463.00
2024-05-09T10:55:52.793Z,466.00
2024-05-09T10:56:52.838Z,465.00
2024-05-09T10:57:52.998Z,468.00
2024-05-09T10:58:52.964Z,467.00
2024-05-09T10:59:53.009Z,468.00
2024-05-09T11:00:53.162Z,465.00
2024-05-09T11:01:53.196Z,464.00
2024-05-09T11:02:53.028Z,463.00
2024-05-09T11:03:53.278Z,464.00
2024-05-09T11:04:53.275Z,466.00
2024-05-09T11:05:53.310Z,467.00
2024-05-09T11:06:53.195Z,462.00
2024-05-09T11:07:53.181Z,465.00
2024-05-09T11:08:53.244Z,464.00
2024-05-09T11:09:53.329Z,468.00
2024-05-09T11:10:53.540Z,468.00
2024-05-09T11:11:53.430Z,471.00
2024-05-09T11:12:54.514Z,469.00
2024-05-09T11:13:53.532Z,469.00
2024-05-09T11:25:02.321Z,463.00
2024-05-09T11:25:32.701Z,463.00
2024-05-09T11:26:32.688Z,465.00
2024-05-09T11:27:32.741Z,468.00
2024-05-09T11:28:32.739Z,464.00
2024-05-09T11:29:32.716Z,466.00
2024-05-09T11:30:32.816Z,468.00
2024-05-09T11:31:33.046Z,465.00
2024-05-09T11:32:33.021Z,467.00
2024-05-09T11:33:32.860Z,467.00
2024-05-09T11:34:32.854Z,467.00
2024-05-09T11:35:32.690Z,469.00
2024-05-09T11:36:32.757Z,470.00
2024-05-09T11:37:34.584Z,474.00
2024-05-09T11:38:32.710Z,470.00
2024-05-09T11:39:32.720Z,469.00
2024-05-09T11:40:34.550Z,469.00
2024-05-09T11:41:32.722Z,469.00
2024-05-09T11:42:32.765Z,466.00
2024-05-09T11:47:12.854Z,472.00
2024-05-09T11:47:45.862Z,470.00
2024-05-09T11:48:45.843Z,467.00
2024-05-09T11:49:45.854Z,466.00
2024-05-09T11:50:45.761Z,465.00
2024-05-09T11:51:45.777Z,464.00
2024-05-09T11:52:45.766Z,461.00
2024-05-09T11:53:45.768Z,463.00
2024-05-09T11:54:45.790Z,467.00
2024-05-09T11:55:45.767Z,464.00
2024-05-09T11:56:45.772Z,468.00
2024-05-09T11:57:45.786Z,467.00
2024-05-09T11:58:45.758Z,466.00
2024-05-09T11:59:45.758Z,469.00
2024-05-09T12:00:46.231Z,467.00
2024-05-09T12:01:45.971Z,469.00
2024-05-09T12:03:12.848Z,466.00
2024-05-09T12:03:45.903Z,467.00
2024-05-09T12:04:45.988Z,471.00
2024-05-09T12:05:46.001Z,467.00
2024-05-09T12:06:45.809Z,467.00
2024-05-09T12:07:45.770Z,465.00
2024-05-09T12:08:45.774Z,465.00
2024-05-09T12:09:45.819Z,468.00
2024-05-09T12:10:46.064Z,469.00
2024-05-09T12:11:45.798Z,468.00
2024-05-09T12:12:45.800Z,466.00
2024-05-09T12:13:45.790Z,468.00
2024-05-09T12:14:45.776Z,467.00
2024-05-09T12:15:45.792Z,469.00
2024-05-09T12:16:45.832Z,468.00
2024-05-09T12:17:47.789Z,467.00
2024-05-09T12:18:45.909Z,465.00
2024-05-09T12:19:45.842Z,463.00
2024-05-09T12:20:45.768Z,462.00
2024-05-09T12:21:45.789Z,463.00
2024-05-09T12:22:45.772Z,466.00
2024-05-09T12:23:45.780Z,468.00
2024-05-09T12:24:45.826Z,463.00
2024-05-09T12:25:45.768Z,461.00
2024-05-09T12:26:45.768Z,458.00
2024-05-09T12:27:45.817Z,458.00
2024-05-09T12:28:45.793Z,461.00
2024-05-09T12:29:45.812Z,457.00
2024-05-09T12:30:45.860Z,456.00
2024-05-09T12:31:45.819Z,456.00
2024-05-09T12:32:45.943Z,455.00
2024-05-09T12:33:45.827Z,456.00
2024-05-09T12:34:45.830Z,454.00
2024-05-09T12:35:48.202Z,456.00
2024-05-09T12:40:34.427Z,453.00
2024-05-09T12:40:59.950Z,454.00
2024-05-09T12:41:58.862Z,460.00
2024-05-09T12:45:34.601Z,458.00
2024-05-09T12:46:07.652Z,459.00
2024-05-09T12:47:07.553Z,457.00
2024-05-09T12:48:08.185Z,463.00
2024-05-09T12:49:07.797Z,463.00
2024-05-09T12:50:10.896Z,458.00
2024-05-09T12:51:08.581Z,460.00
2024-05-09T12:52:07.609Z,459.00
2024-05-09T12:53:07.583Z,461.00
2024-05-09T12:54:07.603Z,466.00
2024-05-09T13:02:01.296Z,463.00
2024-05-09T13:02:33.831Z,469.00
2024-05-09T13:03:33.821Z,465.00
2024-05-09T13:04:34.020Z,461.00
2024-05-09T13:05:33.937Z,462.00
2024-05-09T13:06:33.738Z,461.00
2024-05-09T13:07:33.696Z,461.00
2024-05-09T13:08:33.674Z,455.00
2024-05-09T13:09:33.704Z,455.00
2024-05-09T13:10:33.894Z,455.00
2024-05-09T13:11:33.725Z,455.00
2024-05-09T13:12:33.687Z,455.00
2024-05-09T13:13:33.676Z,459.00
2024-05-09T13:15:03.191Z,461.00
2024-05-09T13:15:33.847Z,461.00
2024-05-09T13:16:34.026Z,459.00
2024-05-09T13:17:33.978Z,461.00
2024-05-09T13:18:34.057Z,463.00
2024-05-09T13:19:34.003Z,465.00
2024-05-09T13:22:05.569Z,460.00
2024-05-09T13:22:38.349Z,463.00
2024-05-09T13:23:43.368Z,463.00
2024-05-09T13:24:38.457Z,462.00
2024-05-09T13:25:38.479Z,462.00
2024-05-09T13:26:38.364Z,464.00
2024-05-09T13:27:38.429Z,466.00
2024-05-09T13:35:31.520Z,461.00
2024-05-09T13:36:04.510Z,464.00
2024-05-09T13:37:04.502Z,462.00
2024-05-09T13:38:05.159Z,459.00
2024-05-09T13:39:04.523Z,460.00
2024-05-09T13:40:07.078Z,460.00
2024-05-09T13:41:04.497Z,461.00
2024-05-09T13:42:04.485Z,461.00
2024-05-09T13:43:11.778Z,449.00
2024-05-09T13:44:11.727Z,449.00
2024-05-09T13:45:11.792Z,454.00
2024-05-09T13:46:11.764Z,449.00
2024-05-09T13:47:11.764Z,450.00
2024-05-09T13:48:11.932Z,456.00
2024-05-09T13:49:12.809Z,456.00
2024-05-09T13:50:20.126Z,454.00
2024-05-09T13:51:12.739Z,455.00
2024-05-09T13:52:11.800Z,454.00
2024-05-09T13:53:11.777Z,454.00
2024-05-09T13:54:11.756Z,456.00
2024-05-09T13:55:11.822Z,457.00
2024-05-09T13:56:11.752Z,456.00
2024-05-09T13:57:11.745Z,458.00
2024-05-09T13:58:11.856Z,458.00
2024-05-09T13:59:11.765Z,454.00
2024-05-09T14:00:22.252Z,451.00
2024-05-09T14:01:12.875Z,456.00
2024-05-09T14:02:11.847Z,465.00
2024-05-09T14:03:11.887Z,468.00
2024-05-09T14:04:11.876Z,465.00
2024-05-09T14:05:11.968Z,461.00
2024-05-09T14:06:13.216Z,465.00
2024-05-09T14:07:11.816Z,464.00
2024-05-09T14:08:11.765Z,465.00
2024-05-09T14:19:17.937Z,463.00
2024-05-09T14:19:50.927Z,462.00
2024-05-09T14:20:50.915Z,463.00
2024-05-09T14:21:50.985Z,464.00
2024-05-09T14:22:50.940Z,463.00
2024-05-09T14:23:50.917Z,461.00
2024-05-09T14:24:50.994Z,460.00
2024-05-09T14:25:52.327Z,460.00
2024-05-09T14:26:50.915Z,461.00
2024-05-09T14:27:50.969Z,459.00
2024-05-09T14:28:50.928Z,459.00
2024-05-09T14:32:26.716Z,454.00
2024-05-09T14:32:59.705Z,455.00
2024-05-09T14:33:59.763Z,454.00
2024-05-09T14:34:59.696Z,455.00
2024-05-09T14:35:59.645Z,453.00
2024-05-09T14:36:59.637Z,452.00
2024-05-09T14:37:59.631Z,452.00
2024-05-09T14:38:59.619Z,454.00
2024-05-09T14:39:59.736Z,455.00
2024-05-09T14:49:01.663Z,454.00
2024-05-09T14:49:30.075Z,453.00
2024-05-09T14:50:35.930Z,456.00
2024-05-09T14:51:31.159Z,456.00
2024-05-09T15:02:36.243Z,449.00
2024-05-09T15:03:09.234Z,450.00
2024-05-09T15:04:09.351Z,449.00
2024-05-09T15:05:09.366Z,452.00
2024-05-09T15:06:09.400Z,451.00
2024-05-09T15:07:11.325Z,451.00
2024-05-09T15:08:09.241Z,451.00
2024-05-09T15:09:09.259Z,451.00
2024-05-09T15:10:16.572Z,452.00
2024-05-09T15:11:10.316Z,452.00
2024-05-09T15:12:09.214Z,452.00
2024-05-09T15:13:11.344Z,453.00
2024-05-09T15:14:09.233Z,454.00
2024-05-09T15:15:09.229Z,454.00
2024-05-09T15:16:09.264Z,457.00
2024-05-09T15:17:09.256Z,458.00
2024-05-09T15:18:09.380Z,457.00
2024-05-09T15:19:09.322Z,456.00
2024-05-09T15:20:09.871Z,453.00
2024-05-09T15:24:58.557Z,453.00
2024-05-09T15:25:29.038Z,452.00
2024-05-09T15:26:28.892Z,452.00
2024-05-09T15:27:28.942Z,451.00
2024-05-09T15:28:28.946Z,450.00
2024-05-09T15:29:28.905Z,455.00
2024-05-09T15:30:31.997Z,454.00
2024-05-09T15:31:29.103Z,461.00
2024-05-09T15:32:29.132Z,456.00
2024-05-09T15:33:28.945Z,458.00
2024-05-09T15:34:28.958Z,457.00
2024-05-09T15:35:28.919Z,454.00
2024-05-09T15:36:28.962Z,458.00
2024-05-09T15:37:28.909Z,460.00
2024-05-09T15:38:28.905Z,459.00
2024-05-09T15:39:28.933Z,458.00
2024-05-09T15:40:36.043Z,456.00
2024-05-09T15:41:29.912Z,452.00
2024-05-09T15:42:28.970Z,454.00
2024-05-09T15:43:29.033Z,456.00
2024-05-09T15:44:28.924Z,456.00
2024-05-09T15:45:28.994Z,457.00
2024-05-09T15:46:29.016Z,458.00
2024-05-09T15:47:28.959Z,461.00
2024-05-09T15:48:29.055Z,459.00
2024-05-09T15:49:29.055Z,459.00
2024-05-09T15:50:36.727Z,456.00
2024-05-09T15:51:30.116Z,449.00
2024-05-09T15:52:28.912Z,450.00
2024-05-09T15:53:28.917Z,451.00
2024-05-09T15:54:29.002Z,449.00
2024-05-09T15:55:28.925Z,449.00
2024-05-09T15:56:28.927Z,451.00
2024-05-09T15:57:28.942Z,454.00
2024-05-09T15:58:28.954Z,453.00
2024-05-09T15:59:28.924Z,455.00
2024-05-09T16:00:36.780Z,452.00
2024-05-09T16:01:30.046Z,450.00
2024-05-09T16:02:29.098Z,449.00
2024-05-09T16:03:29.015Z,451.00
2024-05-09T16:04:29.109Z,457.00
2024-05-09T16:05:29.044Z,454.00
2024-05-09T16:06:29.001Z,455.00
2024-05-09T16:07:28.933Z,456.00
2024-05-09T16:08:28.930Z,456.00
2024-05-09T16:09:28.973Z,455.00
2024-05-09T16:10:32.495Z,454.00
2024-05-09T16:11:29.980Z,450.00
2024-05-09T16:12:28.959Z,443.00
2024-05-09T16:13:29.007Z,444.00
2024-05-09T16:14:28.949Z,448.00
2024-05-09T16:15:29.095Z,449.00
2024-05-09T16:16:28.994Z,449.00
2024-05-09T16:17:28.995Z,449.00
2024-05-09T16:18:28.987Z,449.00
2024-05-09T16:19:28.968Z,447.00
2024-05-09T16:20:37.216Z,447.00
2024-05-09T16:30:31.855Z,454.00
2024-05-09T16:31:00.458Z,455.00
2024-05-09T16:34:35.182Z,454.00
2024-05-09T16:35:08.122Z,454.00
2024-05-09T16:36:08.132Z,456.00
2024-05-09T16:37:08.200Z,456.00
2024-05-09T16:38:08.132Z,455.00
2024-05-09T16:46:01.309Z,453.00
2024-05-09T16:46:34.244Z,455.00
2024-05-09T16:47:34.416Z,457.00
2024-05-09T16:50:08.389Z,452.00
2024-05-09T16:50:38.605Z,453.00
2024-05-09T16:51:38.680Z,454.00
2024-05-09T16:52:38.589Z,452.00
2024-05-09T16:53:38.595Z,451.00
2024-05-09T16:54:38.634Z,457.00
2024-05-09T16:55:38.859Z,458.00
2024-05-09T16:56:38.605Z,456.00
2024-05-09T16:57:38.624Z,455.00
2024-05-09T17:02:18.947Z,451.00
2024-05-09T17:02:51.706Z,451.00
2024-05-09T17:03:51.910Z,451.00
2024-05-09T17:04:51.643Z,450.00
2024-05-09T17:05:51.883Z,447.00
2024-05-09T17:06:51.691Z,450.00
2024-05-09T17:07:51.648Z,449.00
2024-05-09T17:08:51.760Z,447.00
2024-05-09T17:09:51.642Z,446.00
2024-05-09T17:10:51.931Z,446.00
2024-05-09T17:11:51.674Z,446.00
2024-05-09T17:12:51.662Z,446.00
2024-05-09T17:13:51.648Z,448.00
2024-05-09T17:14:51.647Z,449.00
2024-05-09T17:15:51.735Z,451.00
2024-05-09T17:16:51.671Z,453.00
2024-05-09T17:17:51.684Z,454.00
2024-05-09T17:18:51.690Z,454.00
2024-05-09T17:19:51.658Z,454.00
2024-05-09T17:23:28.284Z,454.00
2024-05-09T17:24:00.368Z,455.00
2024-05-09T17:25:00.551Z,453.00
2024-05-09T17:26:00.348Z,447.00
2024-05-09T17:27:00.372Z,446.00
2024-05-09T17:28:00.447Z,443.00
2024-05-09T17:29:00.363Z,442.00
2024-05-09T17:30:00.348Z,441.00
2024-05-09T17:31:00.385Z,444.00
2024-05-09T17:32:00.390Z,445.00
2024-05-09T17:33:00.427Z,445.00
2024-05-09T17:34:00.500Z,446.00
2024-05-09T17:40:49.149Z,447.00
2024-05-09T17:41:22.097Z,446.00
2024-05-09T17:42:22.088Z,450.00
2024-05-09T17:43:22.340Z,445.00
2024-05-09T17:44:36.656Z,447.00
2024-05-09T17:45:22.286Z,442.00
2024-05-09T17:46:22.451Z,442.00
2024-05-09T17:47:22.451Z,445.00
2024-05-09T17:51:00.613Z,447.00
2024-05-09T17:51:31.318Z,445.00
2024-05-09T17:52:31.305Z,446.00
2024-05-09T17:53:31.278Z,448.00
2024-05-09T17:54:31.379Z,453.00
2024-05-09T17:55:31.457Z,451.00
2024-05-09T17:56:31.375Z,453.00
2024-05-09T17:57:31.423Z,453.00
2024-05-09T17:58:31.550Z,453.00
2024-05-09T17:59:31.517Z,451.00
2024-05-09T18:00:38.529Z,449.00
2024-05-09T18:01:32.700Z,449.00
2024-05-09T18:07:16.266Z,453.00
2024-05-09T18:07:48.998Z,454.00
2024-05-09T18:08:48.991Z,455.00
2024-05-09T18:09:49.081Z,454.00
2024-05-09T18:10:50.157Z,456.00
2024-05-09T18:11:49.048Z,455.00
2024-05-09T18:12:49.046Z,459.00
2024-05-09T18:13:56.299Z,460.00
2024-05-09T18:14:56.285Z,464.00
2024-05-09T18:15:56.291Z,464.00
2024-05-09T18:16:56.279Z,467.00
2024-05-09T18:20:40.503Z,467.00
2024-05-09T18:21:05.992Z,467.00
2024-05-09T18:53:03.075Z,463.00
2024-05-09T18:53:36.025Z,460.00
2024-05-09T18:54:36.075Z,463.00
2024-05-09T18:55:36.094Z,462.00
2024-05-09T18:56:36.032Z,464.00
2024-05-09T18:57:36.079Z,465.00
2024-05-09T18:58:36.019Z,464.00
2024-05-09T18:59:36.038Z,461.00